createdAt,value
2018-04-30T00:00:51.782Z,10.55
2018-04-30T00:04:01.593Z,7.70
2018-04-30T00:07:11.430Z,10.02
2018-04-30T00:10:21.666Z,9.25
2018-04-30T00:13:32.182Z,9.38
2018-04-30T00:16:42.007Z,9.27
2018-04-30T00:19:52.646Z,9.52
2018-04-30T00:23:03.181Z,8.20
2018-04-30T00:26:12.983Z,6.80
2018-04-30T00:29:22.812Z,8.27
2018-04-30T00:32:32.666Z,9.90
2018-04-30T00:35:43.357Z,9.23
2018-04-30T00:38:53.600Z,9.30
2018-04-30T00:42:03.366Z,8.77
2018-04-30T00:45:13.318Z,10.00
2018-04-30T00:48:23.063Z,8.25
2018-04-30T00:51:33.865Z,9.38
2018-04-30T00:54:55.786Z,9.25
2018-04-30T00:58:05.880Z,9.52
2018-04-30T01:01:16.052Z,11.90
2018-04-30T01:04:26.243Z,8.35
2018-04-30T01:07:36.585Z,6.85
2018-04-30T01:10:47.257Z,8.43
2018-04-30T01:13:57.811Z,7.60
2018-04-30T01:17:08.376Z,9.70
2018-04-30T01:20:18.469Z,9.18
2018-04-30T01:23:28.605Z,8.30
2018-04-30T01:26:40.377Z,11.35
2018-04-30T01:29:51.434Z,8.40
2018-04-30T01:33:01.451Z,9.68
2018-04-30T01:36:11.279Z,8.63
2018-04-30T01:39:21.276Z,8.90
2018-04-30T01:42:31.068Z,12.88
2018-04-30T01:45:41.012Z,9.63
2018-04-30T01:48:50.237Z,10.25
2018-04-30T01:52:01.306Z,10.35
2018-04-30T01:55:12.793Z,7.80
2018-04-30T01:58:22.720Z,9.43
2018-04-30T02:01:32.695Z,10.27
2018-04-30T02:04:43.130Z,10.88
2018-04-30T02:07:53.774Z,12.30
2018-04-30T02:11:04.119Z,11.60
2018-04-30T02:14:15.469Z,9.40
2018-04-30T02:17:26.231Z,10.95
2018-04-30T02:20:37.254Z,11.30
2018-04-30T02:23:47.248Z,9.70
2018-04-30T02:26:57.717Z,9.70
2018-04-30T02:30:07.939Z,9.40
2018-04-30T02:33:17.797Z,8.10
2018-04-30T02:36:28.028Z,7.70
2018-04-30T02:39:38.136Z,10.98
2018-04-30T02:42:48.255Z,9.82
2018-04-30T02:45:58.595Z,8.40
2018-04-30T02:49:08.726Z,10.95
2018-04-30T02:52:18.487Z,8.50
2018-04-30T02:55:28.278Z,8.75
2018-04-30T02:58:38.148Z,9.43
2018-04-30T03:01:47.873Z,8.45
2018-04-30T03:04:58.622Z,9.15
2018-04-30T03:08:08.570Z,8.40
2018-04-30T03:11:19.204Z,7.43
2018-04-30T03:14:28.989Z,7.40
2018-04-30T03:17:38.833Z,9.10
2018-04-30T03:20:48.589Z,11.23
2018-04-30T03:23:58.224Z,6.93
2018-04-30T03:27:08.303Z,7.12
2018-04-30T03:30:18.174Z,7.82
2018-04-30T03:33:28.024Z,7.32
2018-04-30T03:36:38.631Z,7.25
2018-04-30T03:39:48.675Z,8.10
2018-04-30T03:42:58.529Z,7.22
2018-04-30T03:46:09.094Z,8.10
2018-04-30T03:49:19.290Z,8.98
2018-04-30T03:52:29.107Z,7.30
2018-04-30T03:55:38.966Z,6.60
2018-04-30T03:58:49.808Z,5.93
2018-04-30T04:02:11.334Z,7.45
2018-04-30T04:09:05.717Z,8.85
2018-04-30T04:12:15.678Z,9.45
2018-04-30T04:15:25.542Z,7.68
2018-04-30T04:18:35.308Z,8.88
2018-04-30T04:21:45.192Z,7.22
2018-04-30T04:24:55.036Z,7.50
2018-04-30T04:28:04.781Z,8.25
2018-04-30T04:31:15.450Z,6.60
2018-04-30T04:34:26.452Z,7.28
2018-04-30T04:37:36.557Z,7.32
2018-04-30T04:40:46.636Z,7.12
2018-04-30T04:43:57.135Z,8.30
2018-04-30T04:47:07.273Z,7.78
2018-04-30T04:50:17.067Z,14.10
2018-04-30T04:53:27.669Z,24.98
2018-04-30T04:56:37.920Z,14.93
2018-04-30T04:59:47.867Z,11.68
2018-04-30T05:02:57.890Z,8.68
2018-04-30T05:06:08.588Z,7.82
2018-04-30T05:09:18.575Z,8.88
2018-04-30T05:12:28.654Z,6.78
2018-04-30T05:15:38.442Z,6.53
2018-04-30T05:18:49.261Z,7.75
2018-04-30T05:21:59.564Z,6.47
2018-04-30T05:25:09.976Z,5.80
2018-04-30T05:28:19.975Z,8.50
2018-04-30T05:31:29.780Z,7.00
2018-04-30T05:34:39.653Z,6.47
2018-04-30T05:37:49.430Z,7.45
2018-04-30T05:40:59.365Z,7.70
2018-04-30T05:44:09.158Z,6.50
2018-04-30T05:47:19.900Z,7.30
2018-04-30T05:50:30.075Z,9.57
2018-04-30T05:53:39.952Z,7.85
2018-04-30T05:56:50.488Z,5.47
2018-04-30T06:00:00.774Z,5.93
2018-04-30T06:03:11.422Z,6.60
2018-04-30T06:06:20.971Z,7.87
2018-04-30T06:09:31.083Z,7.15
2018-04-30T06:12:41.004Z,6.50
2018-04-30T06:15:51.718Z,5.70
2018-04-30T06:19:01.848Z,6.00
2018-04-30T06:22:12.565Z,7.53
2018-04-30T06:25:22.811Z,5.20
2018-04-30T06:28:32.638Z,6.30
2018-04-30T06:31:42.482Z,5.30
2018-04-30T06:34:53.307Z,5.80
2018-04-30T06:38:04.452Z,5.62
2018-04-30T06:41:14.778Z,5.35
2018-04-30T06:44:24.553Z,3.17
2018-04-30T06:47:34.526Z,5.55
2018-04-30T06:50:45.348Z,4.40
2018-04-30T06:53:55.188Z,7.20
2018-04-30T06:57:05.892Z,4.25
2018-04-30T07:00:16.067Z,3.35
2018-04-30T07:03:27.547Z,3.35
2018-04-30T07:06:37.517Z,4.62
2018-04-30T07:09:47.433Z,3.85
2018-04-30T07:12:57.413Z,3.37
2018-04-30T07:16:08.195Z,3.08
2018-04-30T07:19:18.119Z,2.92
2018-04-30T07:22:27.914Z,2.42
2018-04-30T07:25:37.701Z,2.12
2018-04-30T07:28:47.526Z,2.25
2018-04-30T07:31:58.193Z,2.22
2018-04-30T07:35:07.981Z,2.17
2018-04-30T07:38:18.637Z,2.47
2018-04-30T07:41:28.587Z,1.70
2018-04-30T07:44:39.986Z,2.60
2018-04-30T07:47:50.990Z,2.28
2018-04-30T07:51:02.363Z,3.08
2018-04-30T07:54:12.942Z,2.17
2018-04-30T07:57:22.895Z,2.35
2018-04-30T08:00:34.497Z,1.95
2018-04-30T08:03:44.554Z,2.28
2018-04-30T08:06:55.127Z,2.62
2018-04-30T08:10:04.721Z,2.85
2018-04-30T08:13:15.590Z,1.83
2018-04-30T08:16:25.303Z,1.62
2018-04-30T08:19:35.457Z,1.67
2018-04-30T08:22:46.149Z,2.20
2018-04-30T08:25:55.916Z,2.30
2018-04-30T08:29:05.654Z,1.60
2018-04-30T08:32:15.415Z,1.98
2018-04-30T08:35:25.369Z,4.05
2018-04-30T08:38:35.148Z,2.10
2018-04-30T08:41:44.985Z,3.15
2018-04-30T08:44:54.778Z,2.05
2018-04-30T08:48:04.590Z,1.60
2018-04-30T08:51:15.327Z,1.73
2018-04-30T08:54:25.041Z,2.12
2018-04-30T08:57:35.617Z,1.70
2018-04-30T09:00:46.064Z,1.42
2018-04-30T09:03:56.782Z,1.80
2018-04-30T09:07:06.707Z,1.95
2018-04-30T09:10:16.464Z,1.45
2018-04-30T09:13:27.903Z,1.90
2018-04-30T09:16:38.066Z,1.65
2018-04-30T09:19:47.835Z,1.85
2018-04-30T09:22:57.597Z,1.45
2018-04-30T09:26:07.424Z,1.73
2018-04-30T09:29:17.189Z,2.50
2018-04-30T09:32:27.150Z,1.80
2018-04-30T09:35:37.699Z,1.58
2018-04-30T09:38:47.695Z,1.58
2018-04-30T09:41:58.327Z,1.70
2018-04-30T09:45:07.833Z,1.70
2018-04-30T09:48:17.670Z,2.42
2018-04-30T09:51:27.518Z,1.83
2018-04-30T09:54:37.674Z,1.50
2018-04-30T09:57:47.733Z,1.70
2018-04-30T10:00:57.967Z,1.52
2018-04-30T10:04:08.724Z,3.05
2018-04-30T10:07:18.845Z,1.50
2018-04-30T10:10:29.491Z,1.80
2018-04-30T10:13:39.493Z,2.15
2018-04-30T10:16:49.282Z,1.75
2018-04-30T10:19:59.294Z,1.40
2018-04-30T10:23:09.145Z,1.35
2018-04-30T10:26:20.114Z,1.92
2018-04-30T10:29:29.926Z,1.70
2018-04-30T10:32:40.179Z,1.50
2018-04-30T10:35:51.682Z,1.40
2018-04-30T10:39:03.579Z,1.50
2018-04-30T10:42:13.612Z,1.40
2018-04-30T10:45:24.110Z,1.60
2018-04-30T10:48:34.500Z,1.60
2018-04-30T10:51:45.176Z,1.58
2018-04-30T10:54:55.621Z,1.40
2018-04-30T10:58:05.513Z,1.60
2018-04-30T11:01:16.237Z,1.40
2018-04-30T11:04:26.843Z,1.60
2018-04-30T11:07:36.593Z,1.60
2018-04-30T11:10:46.732Z,1.37
2018-04-30T11:13:56.807Z,1.77
2018-04-30T11:17:07.179Z,1.37
2018-04-30T11:20:17.065Z,1.50
2018-04-30T11:23:26.932Z,1.40
2018-04-30T11:26:36.976Z,1.40
2018-04-30T11:29:47.588Z,1.80
2018-04-30T11:32:57.735Z,1.40
2018-04-30T11:36:08.589Z,1.65
2018-04-30T11:39:18.575Z,2.17
2018-04-30T11:42:28.471Z,1.40
2018-04-30T11:45:38.591Z,1.40
2018-04-30T11:48:49.142Z,1.50
2018-04-30T11:51:59.603Z,1.60
2018-04-30T11:55:10.533Z,1.60
2018-04-30T11:58:20.462Z,1.40
2018-04-30T12:01:30.318Z,1.50
2018-04-30T12:04:40.102Z,1.60
2018-04-30T12:07:51.589Z,1.83
2018-04-30T12:11:02.678Z,1.48
2018-04-30T12:14:13.550Z,1.83
2018-04-30T12:17:23.273Z,2.17
2018-04-30T12:20:34.114Z,1.50
2018-04-30T12:23:43.664Z,1.92
2018-04-30T12:26:54.416Z,1.90
2018-04-30T12:30:04.141Z,1.87
2018-04-30T12:33:15.069Z,2.00
2018-04-30T12:36:25.204Z,1.52
2018-04-30T12:39:35.269Z,1.73
2018-04-30T12:42:45.013Z,1.62
2018-04-30T12:45:55.797Z,3.58
2018-04-30T12:49:05.683Z,1.50
2018-04-30T12:52:15.624Z,1.70
2018-04-30T12:55:26.243Z,1.70
2018-04-30T12:58:36.245Z,1.42
2018-04-30T13:01:47.187Z,1.50
2018-04-30T13:04:57.963Z,1.92
2018-04-30T13:08:08.250Z,1.60
2018-04-30T13:11:18.637Z,1.35
2018-04-30T13:14:29.158Z,1.55
2018-04-30T13:17:39.574Z,2.00
2018-04-30T13:20:49.363Z,1.60
2018-04-30T13:23:59.260Z,1.70
2018-04-30T13:27:09.306Z,1.52
2018-04-30T13:30:19.778Z,1.70
2018-04-30T13:33:29.674Z,1.60
2018-04-30T13:36:40.831Z,1.50
2018-04-30T13:39:50.957Z,1.83
2018-04-30T13:43:01.765Z,1.73
2018-04-30T13:46:11.928Z,1.48
2018-04-30T13:49:21.777Z,1.40
2018-04-30T13:52:32.452Z,1.50
2018-04-30T13:55:43.979Z,2.47
2018-04-30T13:58:54.039Z,2.28
2018-04-30T14:02:03.662Z,1.60
2018-04-30T14:05:14.648Z,1.60
2018-04-30T14:08:24.536Z,1.40
2018-04-30T14:11:34.759Z,1.67
2018-04-30T14:14:44.637Z,1.95
2018-04-30T14:17:54.777Z,1.52
2018-04-30T14:21:05.016Z,1.90
2018-04-30T14:24:15.556Z,1.60
2018-04-30T14:27:25.675Z,1.67
2018-04-30T14:30:36.018Z,1.33
2018-04-30T14:33:46.000Z,1.60
2018-04-30T14:36:56.628Z,1.80
2018-04-30T14:40:07.196Z,1.60
2018-04-30T14:43:17.526Z,1.80
2018-04-30T14:46:27.337Z,1.65
2018-04-30T14:49:37.271Z,1.50
2018-04-30T14:52:47.569Z,1.50
2018-04-30T14:55:58.733Z,1.55
2018-04-30T14:59:09.291Z,1.50
2018-04-30T15:02:20.342Z,1.40
2018-04-30T15:05:30.787Z,1.60
2018-04-30T15:08:41.488Z,1.60
2018-04-30T15:11:52.134Z,1.77
2018-04-30T15:15:02.222Z,1.75
2018-04-30T15:18:12.963Z,1.77
2018-04-30T15:21:23.180Z,2.00
2018-04-30T15:24:34.401Z,1.90
2018-04-30T15:27:44.817Z,1.65
2018-04-30T15:30:56.569Z,1.75
2018-04-30T15:34:06.550Z,2.22
2018-04-30T15:37:18.068Z,1.83
2018-04-30T15:40:27.935Z,1.65
2018-04-30T15:43:37.695Z,1.80
2018-04-30T15:46:48.377Z,2.00
2018-04-30T15:49:58.148Z,1.40
2018-04-30T15:53:08.174Z,1.50
2018-04-30T15:56:18.191Z,1.70
2018-04-30T15:59:28.063Z,1.60
2018-04-30T16:02:38.420Z,2.15
2018-04-30T16:05:48.157Z,1.70
2018-04-30T16:08:58.077Z,1.90
2018-04-30T16:12:08.709Z,2.00
2018-04-30T16:15:19.406Z,1.60
2018-04-30T16:18:29.929Z,1.70
2018-04-30T16:21:39.744Z,1.85
2018-04-30T16:24:49.597Z,2.15
2018-04-30T16:27:59.460Z,1.75
2018-04-30T16:31:10.147Z,1.70
2018-04-30T16:34:20.069Z,1.60
2018-04-30T16:37:30.110Z,1.65
2018-04-30T16:40:40.099Z,1.70
2018-04-30T16:43:50.064Z,2.17
2018-04-30T16:47:00.698Z,1.77
2018-04-30T16:50:11.380Z,1.73
2018-04-30T16:53:24.021Z,1.60
2018-04-30T16:56:34.601Z,2.30
2018-04-30T16:59:44.518Z,2.87
2018-04-30T17:02:55.048Z,2.00
2018-04-30T17:06:05.746Z,2.97
2018-04-30T17:09:15.657Z,2.60
2018-04-30T17:12:26.316Z,10.15
2018-04-30T17:15:36.192Z,9.95
2018-04-30T17:18:46.007Z,2.65
2018-04-30T17:21:56.885Z,2.42
2018-04-30T17:25:07.422Z,3.15
2018-04-30T17:28:18.061Z,3.83
2018-04-30T17:31:28.682Z,3.30
2018-04-30T17:34:39.414Z,2.50
2018-04-30T17:37:49.304Z,2.45
2018-04-30T17:41:00.128Z,5.00
2018-04-30T17:44:11.624Z,4.10
2018-04-30T17:47:21.681Z,4.20
2018-04-30T17:50:32.330Z,4.55
2018-04-30T17:53:42.989Z,3.62
2018-04-30T17:56:52.532Z,4.50
2018-04-30T18:00:02.977Z,5.80
2018-04-30T18:03:13.778Z,4.75
2018-04-30T18:06:23.675Z,4.68
2018-04-30T18:09:33.595Z,6.65
2018-04-30T18:12:44.307Z,6.50
2018-04-30T18:15:54.502Z,6.57
2018-04-30T18:19:05.039Z,6.00
2018-04-30T18:22:15.340Z,7.62
2018-04-30T18:25:25.770Z,8.98
2018-04-30T18:28:36.096Z,8.60
2018-04-30T18:31:46.257Z,10.13
2018-04-30T18:34:56.892Z,7.03
2018-04-30T18:38:07.042Z,6.68
2018-04-30T18:41:16.914Z,5.18
2018-04-30T18:44:26.849Z,5.50
2018-04-30T18:47:37.730Z,6.03
2018-04-30T18:50:48.610Z,9.23
2018-04-30T18:53:58.395Z,6.22
2018-04-30T18:57:08.243Z,9.32
2018-04-30T19:00:18.101Z,9.75
2018-04-30T19:03:28.106Z,8.98
2018-04-30T19:06:38.221Z,12.37
2018-04-30T19:09:49.432Z,11.68
2018-04-30T19:12:59.375Z,11.93
2018-04-30T19:16:09.949Z,10.88
2018-04-30T19:19:19.905Z,10.43
2018-04-30T19:22:30.075Z,9.30
2018-04-30T19:25:40.646Z,10.82
2018-04-30T19:28:51.367Z,9.77
2018-04-30T19:32:01.720Z,8.65
2018-04-30T19:35:11.731Z,9.05
2018-04-30T19:38:21.867Z,9.57
2018-04-30T19:41:32.420Z,10.68
2018-04-30T19:44:42.477Z,8.02
2018-04-30T19:47:53.372Z,9.35
2018-04-30T19:51:03.649Z,8.93
2018-04-30T19:54:13.881Z,10.50
2018-04-30T19:57:23.723Z,12.85
2018-04-30T20:00:33.583Z,10.82
2018-04-30T20:03:44.387Z,15.15
2018-04-30T20:06:54.631Z,11.35
2018-04-30T20:10:05.007Z,15.95
2018-04-30T20:13:16.406Z,18.62
2018-04-30T20:16:27.558Z,21.20
2018-04-30T20:19:37.772Z,26.30
2018-04-30T20:22:48.334Z,22.30
2018-04-30T20:25:58.446Z,26.20
2018-04-30T20:29:08.970Z,24.95
2018-04-30T20:32:18.698Z,28.25
2018-04-30T20:35:28.977Z,24.67
2018-04-30T20:38:39.311Z,25.55
2018-04-30T20:41:49.504Z,28.23
2018-04-30T20:44:59.877Z,31.40
2018-04-30T20:48:09.729Z,32.22
2018-04-30T20:51:20.298Z,25.58
2018-04-30T20:54:30.231Z,33.05
2018-04-30T20:57:40.922Z,36.45
2018-04-30T21:00:52.439Z,32.60
2018-04-30T21:04:02.390Z,36.70
2018-04-30T21:07:13.999Z,38.67
2018-04-30T21:10:23.862Z,48.42
2018-04-30T21:13:33.706Z,53.35
2018-04-30T21:16:44.068Z,57.17
2018-04-30T21:19:54.129Z,54.55
2018-04-30T21:23:03.984Z,62.78
2018-04-30T21:26:13.800Z,59.95
2018-04-30T21:29:23.637Z,58.85
2018-04-30T21:32:34.437Z,53.20
2018-04-30T21:35:44.615Z,51.72
2018-04-30T21:38:54.474Z,54.20
2018-04-30T21:42:05.143Z,57.97
2018-04-30T21:45:15.118Z,49.80
2018-04-30T21:48:25.135Z,57.83
2018-04-30T21:51:35.768Z,54.97
2018-04-30T21:54:48.249Z,47.58
2018-04-30T21:57:58.930Z,45.28
2018-04-30T22:01:09.810Z,36.65
2018-04-30T22:04:20.031Z,51.95
2018-04-30T22:07:30.795Z,59.30
2018-04-30T22:10:42.325Z,50.03
2018-04-30T22:13:52.690Z,44.50
2018-04-30T22:17:02.604Z,44.75
2018-04-30T22:20:12.485Z,48.00
2018-04-30T22:23:22.593Z,52.72
2018-04-30T22:26:32.399Z,51.63
2018-04-30T22:29:42.471Z,47.78
2018-04-30T22:32:52.442Z,53.63
2018-04-30T22:36:02.286Z,42.25
2018-04-30T22:39:12.360Z,44.00
2018-04-30T22:42:23.465Z,51.60
2018-04-30T22:45:33.760Z,57.13
2018-04-30T22:48:44.213Z,52.70
2018-04-30T22:51:54.160Z,55.80
2018-04-30T22:55:04.222Z,56.30
2018-04-30T22:58:14.210Z,58.60
2018-04-30T23:01:24.750Z,52.35
2018-04-30T23:04:35.482Z,53.47
2018-04-30T23:07:45.886Z,45.22
2018-04-30T23:10:56.571Z,43.35
2018-04-30T23:14:06.375Z,39.80
2018-04-30T23:17:16.518Z,41.75
2018-04-30T23:20:26.439Z,21.23
2018-04-30T23:23:36.451Z,29.25
2018-04-30T23:26:46.314Z,33.17
2018-04-30T23:29:57.770Z,44.90
2018-04-30T23:33:08.103Z,39.45
2018-04-30T23:36:17.983Z,41.78
2018-04-30T23:39:27.821Z,35.70
2018-04-30T23:42:37.702Z,36.95
2018-04-30T23:45:47.573Z,24.95
2018-04-30T23:48:57.634Z,16.35
2018-04-30T23:52:07.577Z,11.82
2018-04-30T23:55:17.829Z,10.07
2018-04-30T23:58:27.799Z,7.57
